PTINT SBJD-SBJD
Flight info
| Callsign | PTINT |
|---|---|
| Flight time | 0h 36m |
| Altitude | 3800 |
| Route | DCT |
| Aircraft | C172/L-V/C |
Departure
| Time | 2026-04-22 16:35 |
|---|---|
| Airport | Comte. Rolim Adolfo Amaro–Jundiaí State Airport (SBJD) |
Arrival
| Time | 2026-04-22 17:11 |
|---|---|
| Airport | Comte. Rolim Adolfo Amaro–Jundiaí State Airport (SBJD) |
| Time | Latitude | Longitude | Altitude | Speed | Heading |
|---|---|---|---|---|---|
| 2026-04-22 16:16 | -23.18396 | -46.94358 | 2489 ft | 0 kts | 337° |
| 2026-04-22 16:29 | -23.18395 | -46.94359 | 2489 ft | 1 kts | 341° |
| 2026-04-22 16:29 | -23.18371 | -46.94327 | 2487 ft | 10 kts | 69° |
| 2026-04-22 16:29 | -23.18362 | -46.94301 | 2485 ft | 3 kts | 63° |
| 2026-04-22 16:29 | -23.18330 | -46.94251 | 2481 ft | 13 kts | 95° |
| 2026-04-22 16:30 | -23.18369 | -46.94190 | 2479 ft | 16 kts | 119° |
| 2026-04-22 16:30 | -23.18239 | -46.94219 | 2474 ft | 19 kts | 337° |
| 2026-04-22 16:30 | -23.18114 | -46.94277 | 2470 ft | 21 kts | 337° |
| 2026-04-22 16:30 | -23.17975 | -46.94342 | 2463 ft | 18 kts | 335° |
| 2026-04-22 16:31 | -23.17866 | -46.94393 | 2453 ft | 16 kts | 336° |
| 2026-04-22 16:31 | -23.17760 | -46.94441 | 2444 ft | 16 kts | 336° |
| 2026-04-22 16:31 | -23.17659 | -46.94489 | 2436 ft | 15 kts | 335° |
| 2026-04-22 16:31 | -23.17573 | -46.94528 | 2428 ft | 13 kts | 339° |
| 2026-04-22 16:32 | -23.17494 | -46.94574 | 2427 ft | 0 kts | 303° |
| 2026-04-22 16:32 | -23.17494 | -46.94575 | 2427 ft | 0 kts | 301° |
| 2026-04-22 16:33 | -23.17493 | -46.94575 | 2427 ft | 0 kts | 300° |
| 2026-04-22 16:33 | -23.17486 | -46.94606 | 2428 ft | 10 kts | 271° |
| 2026-04-22 16:34 | -23.17550 | -46.94638 | 2432 ft | 17 kts | 157° |
| 2026-04-22 16:34 | -23.17804 | -46.94522 | 2449 ft | 61 kts | 156° |
| 2026-04-22 16:34 | -23.18281 | -46.94299 | 2537 ft | 80 kts | 156° |
| 2026-04-22 16:34 | -23.18796 | -46.94053 | 2715 ft | 81 kts | 159° |
| 2026-04-22 16:35 | -23.19320 | -46.93833 | 2899 ft | 80 kts | 159° |
| 2026-04-22 16:35 | -23.19843 | -46.93604 | 3074 ft | 81 kts | 146° |
| 2026-04-22 16:35 | -23.20165 | -46.93115 | 3214 ft | 84 kts | 101° |
| 2026-04-22 16:35 | -23.20098 | -46.92493 | 3376 ft | 83 kts | 71° |
| 2026-04-22 16:36 | -23.19906 | -46.91900 | 3539 ft | 83 kts | 54° |
| 2026-04-22 16:36 | -23.19435 | -46.91569 | 3700 ft | 81 kts | 7° |
| 2026-04-22 16:36 | -23.18890 | -46.91667 | 3820 ft | 86 kts | 343° |
| 2026-04-22 16:36 | -23.18297 | -46.91899 | 3786 ft | 90 kts | 338° |
| 2026-04-22 16:37 | -23.17724 | -46.92160 | 3772 ft | 89 kts | 338° |
| 2026-04-22 16:37 | -23.17151 | -46.92413 | 3769 ft | 89 kts | 338° |
| 2026-04-22 16:37 | -23.16589 | -46.92663 | 3771 ft | 87 kts | 338° |
| 2026-04-22 16:37 | -23.16050 | -46.92909 | 3722 ft | 79 kts | 337° |
| 2026-04-22 16:38 | -23.15539 | -46.93143 | 3601 ft | 81 kts | 336° |
| 2026-04-22 16:38 | -23.15152 | -46.93555 | 3505 ft | 78 kts | 291° |
| 2026-04-22 16:38 | -23.15190 | -46.94142 | 3359 ft | 83 kts | 247° |
| 2026-04-22 16:38 | -23.15404 | -46.94705 | 3247 ft | 79 kts | 246° |
| 2026-04-22 16:39 | -23.15775 | -46.95121 | 3114 ft | 79 kts | 202° |
| 2026-04-22 16:39 | -23.16317 | -46.95108 | 2958 ft | 79 kts | 164° |
| 2026-04-22 16:39 | -23.16853 | -46.94953 | 2752 ft | 81 kts | 162° |
| 2026-04-22 16:39 | -23.17362 | -46.94727 | 2551 ft | 76 kts | 156° |
| 2026-04-22 16:40 | -23.17823 | -46.94517 | 2457 ft | 61 kts | 153° |
| 2026-04-22 16:40 | -23.18142 | -46.94362 | 2471 ft | 51 kts | 155° |
| 2026-04-22 16:40 | -23.18976 | -46.93997 | 2650 ft | 71 kts | 156° |
| 2026-04-22 16:41 | -23.19433 | -46.93793 | 2804 ft | 70 kts | 157° |
| 2026-04-22 16:41 | -23.19926 | -46.93577 | 2925 ft | 79 kts | 159° |
| 2026-04-22 16:41 | -23.20402 | -46.93319 | 3107 ft | 78 kts | 134° |
| 2026-04-22 16:41 | -23.20605 | -46.92774 | 3238 ft | 82 kts | 85° |
| 2026-04-22 16:42 | -23.20379 | -46.92192 | 3379 ft | 85 kts | 60° |
| 2026-04-22 16:42 | -23.20094 | -46.91657 | 3574 ft | 80 kts | 45° |
| 2026-04-22 16:42 | -23.19612 | -46.91443 | 3737 ft | 79 kts | 357° |
| 2026-04-22 16:42 | -23.19044 | -46.91631 | 3767 ft | 89 kts | 334° |
| 2026-04-22 16:43 | -23.18488 | -46.91912 | 3763 ft | 88 kts | 337° |
| 2026-04-22 16:43 | -23.17917 | -46.92176 | 3756 ft | 88 kts | 336° |
| 2026-04-22 16:43 | -23.17372 | -46.92462 | 3756 ft | 87 kts | 333° |
| 2026-04-22 16:43 | -23.16819 | -46.92745 | 3749 ft | 87 kts | 339° |
| 2026-04-22 16:44 | -23.16263 | -46.92990 | 3717 ft | 83 kts | 339° |
| 2026-04-22 16:44 | -23.15754 | -46.93207 | 3648 ft | 79 kts | 339° |
| 2026-04-22 16:44 | -23.15240 | -46.93445 | 3541 ft | 80 kts | 330° |
| 2026-04-22 16:44 | -23.14889 | -46.93905 | 3421 ft | 81 kts | 293° |
| 2026-04-22 16:45 | -23.14832 | -46.94510 | 3285 ft | 82 kts | 257° |
| 2026-04-22 16:45 | -23.15019 | -46.95092 | 3154 ft | 82 kts | 240° |
| 2026-04-22 16:45 | -23.15462 | -46.95480 | 2962 ft | 84 kts | 197° |
| 2026-04-22 16:45 | -23.16008 | -46.95442 | 2840 ft | 75 kts | 154° |
| 2026-04-22 16:46 | -23.16453 | -46.95188 | 2711 ft | 70 kts | 151° |
| 2026-04-22 16:46 | -23.16895 | -46.94958 | 2590 ft | 70 kts | 154° |
| 2026-04-22 16:46 | -23.17340 | -46.94739 | 2491 ft | 70 kts | 156° |
| 2026-04-22 16:46 | -23.17763 | -46.94539 | 2447 ft | 54 kts | 157° |
| 2026-04-22 16:47 | -23.18089 | -46.94389 | 2468 ft | 64 kts | 156° |
| 2026-04-22 16:47 | -23.18566 | -46.94160 | 2566 ft | 80 kts | 158° |
| 2026-04-22 16:47 | -23.18902 | -46.94002 | 2691 ft | 79 kts | 157° |
| 2026-04-22 16:47 | -23.19579 | -46.93700 | 2939 ft | 79 kts | 158° |
| 2026-04-22 16:48 | -23.20054 | -46.93395 | 3098 ft | 82 kts | 127° |
| 2026-04-22 16:48 | -23.20226 | -46.92817 | 3259 ft | 82 kts | 84° |
| 2026-04-22 16:48 | -23.20020 | -46.92241 | 3418 ft | 83 kts | 63° |
| 2026-04-22 16:48 | -23.19765 | -46.91677 | 3588 ft | 82 kts | 54° |
| 2026-04-22 16:49 | -23.19309 | -46.91342 | 3736 ft | 82 kts | 7° |
| 2026-04-22 16:49 | -23.18721 | -46.91501 | 3733 ft | 90 kts | 332° |
| 2026-04-22 16:49 | -23.18181 | -46.91815 | 3751 ft | 87 kts | 330° |
| 2026-04-22 16:49 | -23.17658 | -46.92141 | 3756 ft | 87 kts | 329° |
| 2026-04-22 16:50 | -23.17133 | -46.92477 | 3761 ft | 88 kts | 331° |
| 2026-04-22 16:50 | -23.16602 | -46.92775 | 3786 ft | 85 kts | 337° |
| 2026-04-22 16:50 | -23.16098 | -46.93047 | 3773 ft | 77 kts | 336° |
| 2026-04-22 16:50 | -23.15616 | -46.93293 | 3677 ft | 78 kts | 335° |
| 2026-04-22 16:51 | -23.15182 | -46.93651 | 3554 ft | 80 kts | 302° |
| 2026-04-22 16:51 | -23.15083 | -46.94233 | 3441 ft | 80 kts | 258° |
| 2026-04-22 16:51 | -23.15255 | -46.94822 | 3318 ft | 80 kts | 246° |
| 2026-04-22 16:51 | -23.15665 | -46.95201 | 3189 ft | 80 kts | 195° |
| 2026-04-22 16:52 | -23.16220 | -46.95155 | 3007 ft | 80 kts | 166° |
| 2026-04-22 16:52 | -23.16741 | -46.94990 | 2849 ft | 74 kts | 160° |
| 2026-04-22 16:52 | -23.17244 | -46.94780 | 2656 ft | 76 kts | 158° |
| 2026-04-22 16:52 | -23.17751 | -46.94544 | 2654 ft | 82 kts | 158° |
| 2026-04-22 16:53 | -23.18275 | -46.94304 | 2823 ft | 80 kts | 156° |
| 2026-04-22 16:53 | -23.18802 | -46.94046 | 2947 ft | 86 kts | 154° |
| 2026-04-22 16:53 | -23.19335 | -46.93762 | 3132 ft | 85 kts | 156° |
| 2026-04-22 16:53 | -23.19828 | -46.93423 | 3305 ft | 85 kts | 127° |
| 2026-04-22 16:54 | -23.19933 | -46.92807 | 3450 ft | 86 kts | 69° |
| 2026-04-22 16:54 | -23.19696 | -46.92216 | 3618 ft | 85 kts | 65° |
| 2026-04-22 16:54 | -23.19340 | -46.91740 | 3791 ft | 84 kts | 26° |
| 2026-04-22 16:54 | -23.18734 | -46.91611 | 3760 ft | 90 kts | 355° |
| 2026-04-22 16:55 | -23.18120 | -46.91747 | 3729 ft | 90 kts | 343° |
| 2026-04-22 16:55 | -23.17551 | -46.91970 | 3740 ft | 86 kts | 337° |
| 2026-04-22 16:55 | -23.16989 | -46.92217 | 3735 ft | 87 kts | 339° |
| 2026-04-22 16:55 | -23.16441 | -46.92450 | 3726 ft | 83 kts | 339° |
| 2026-04-22 16:56 | -23.15909 | -46.92680 | 3630 ft | 81 kts | 338° |
| 2026-04-22 16:56 | -23.15386 | -46.92934 | 3508 ft | 81 kts | 335° |
| 2026-04-22 16:56 | -23.14976 | -46.93325 | 3397 ft | 82 kts | 298° |
| 2026-04-22 16:56 | -23.14901 | -46.93935 | 3283 ft | 81 kts | 258° |
| 2026-04-22 16:57 | -23.15063 | -46.94516 | 3172 ft | 79 kts | 252° |
| 2026-04-22 16:57 | -23.15288 | -46.95059 | 3036 ft | 80 kts | 230° |
| 2026-04-22 16:57 | -23.15747 | -46.95332 | 2921 ft | 75 kts | 184° |
| 2026-04-22 16:57 | -23.16254 | -46.95220 | 2805 ft | 73 kts | 158° |
| 2026-04-22 16:58 | -23.16568 | -46.95080 | 2712 ft | 72 kts | 158° |
| 2026-04-22 16:58 | -23.17173 | -46.94809 | 2525 ft | 70 kts | 156° |
| 2026-04-22 16:58 | -23.17626 | -46.94603 | 2440 ft | 61 kts | 156° |
| 2026-04-22 16:58 | -23.17957 | -46.94452 | 2459 ft | 59 kts | 156° |
| 2026-04-22 16:59 | -23.18425 | -46.94232 | 2546 ft | 79 kts | 157° |
| 2026-04-22 16:59 | -23.18926 | -46.94006 | 2751 ft | 77 kts | 157° |
| 2026-04-22 16:59 | -23.19430 | -46.93798 | 2932 ft | 77 kts | 160° |
| 2026-04-22 16:59 | -23.19913 | -46.93554 | 3101 ft | 79 kts | 137° |
| 2026-04-22 17:00 | -23.20152 | -46.93013 | 3247 ft | 81 kts | 88° |
| 2026-04-22 17:00 | -23.19730 | -46.91864 | 3584 ft | 81 kts | 59° |
| 2026-04-22 17:00 | -23.19291 | -46.91517 | 3740 ft | 81 kts | 9° |
| 2026-04-22 17:01 | -23.18709 | -46.91618 | 3775 ft | 88 kts | 339° |
| 2026-04-22 17:01 | -23.18140 | -46.91864 | 3790 ft | 88 kts | 339° |
| 2026-04-22 17:01 | -23.17572 | -46.92093 | 3787 ft | 87 kts | 340° |
| 2026-04-22 17:01 | -23.16997 | -46.92328 | 3781 ft | 87 kts | 338° |
| 2026-04-22 17:02 | -23.16442 | -46.92577 | 3770 ft | 82 kts | 338° |
| 2026-04-22 17:02 | -23.15946 | -46.92801 | 3712 ft | 76 kts | 339° |
| 2026-04-22 17:02 | -23.15464 | -46.93042 | 3601 ft | 78 kts | 324° |
| 2026-04-22 17:02 | -23.15171 | -46.93531 | 3466 ft | 80 kts | 283° |
| 2026-04-22 17:03 | -23.15207 | -46.94145 | 3304 ft | 81 kts | 257° |
| 2026-04-22 17:03 | -23.15387 | -46.94725 | 3148 ft | 83 kts | 237° |
| 2026-04-22 17:03 | -23.15826 | -46.95085 | 3034 ft | 78 kts | 195° |
| 2026-04-22 17:03 | -23.16382 | -46.95099 | 2842 ft | 78 kts | 175° |
| 2026-04-22 17:04 | -23.16891 | -46.94961 | 2706 ft | 71 kts | 155° |
| 2026-04-22 17:04 | -23.17364 | -46.94725 | 2528 ft | 73 kts | 155° |
| 2026-04-22 17:04 | -23.17820 | -46.94515 | 2461 ft | 65 kts | 154° |
| 2026-04-22 17:04 | -23.18252 | -46.94320 | 2507 ft | 73 kts | 152° |
| 2026-04-22 17:05 | -23.18744 | -46.94074 | 2631 ft | 78 kts | 155° |
| 2026-04-22 17:05 | -23.19231 | -46.93843 | 2807 ft | 76 kts | 156° |
| 2026-04-22 17:05 | -23.19721 | -46.93609 | 2937 ft | 82 kts | 155° |
| 2026-04-22 17:05 | -23.20216 | -46.93292 | 3106 ft | 83 kts | 133° |
| 2026-04-22 17:06 | -23.20421 | -46.92712 | 3269 ft | 83 kts | 84° |
| 2026-04-22 17:06 | -23.20231 | -46.92121 | 3434 ft | 83 kts | 65° |
| 2026-04-22 17:06 | -23.19987 | -46.91527 | 3595 ft | 85 kts | 65° |
| 2026-04-22 17:06 | -23.19600 | -46.91091 | 3757 ft | 84 kts | 21° |
| 2026-04-22 17:07 | -23.18977 | -46.90998 | 3799 ft | 91 kts | 350° |
| 2026-04-22 17:07 | -23.18405 | -46.91273 | 3810 ft | 88 kts | 332° |
| 2026-04-22 17:07 | -23.17868 | -46.91587 | 3794 ft | 88 kts | 334° |
| 2026-04-22 17:07 | -23.17324 | -46.91880 | 3778 ft | 87 kts | 333° |
| 2026-04-22 17:08 | -23.16789 | -46.92195 | 3762 ft | 87 kts | 333° |
| 2026-04-22 17:08 | -23.16252 | -46.92478 | 3762 ft | 81 kts | 336° |
| 2026-04-22 17:08 | -23.15747 | -46.92728 | 3688 ft | 79 kts | 337° |
| 2026-04-22 17:08 | -23.15234 | -46.92973 | 3572 ft | 81 kts | 334° |
| 2026-04-22 17:09 | -23.14717 | -46.93219 | 3467 ft | 79 kts | 322° |
| 2026-04-22 17:09 | -23.14415 | -46.93679 | 3351 ft | 77 kts | 281° |
| 2026-04-22 17:09 | -23.14433 | -46.94070 | 3269 ft | 78 kts | 254° |
| 2026-04-22 17:09 | -23.14744 | -46.94765 | 3098 ft | 73 kts | 245° |
| 2026-04-22 17:10 | -23.15099 | -46.95145 | 2977 ft | 74 kts | 206° |
| 2026-04-22 17:10 | -23.15620 | -46.95220 | 2824 ft | 77 kts | 188° |
| 2026-04-22 17:10 | -23.16125 | -46.95230 | 2726 ft | 69 kts | 180° |
| 2026-04-22 17:10 | -23.16597 | -46.95076 | 2577 ft | 71 kts | 156° |
| 2026-04-22 17:11 | -23.17053 | -46.94852 | 2493 ft | 70 kts | 160° |
| 2026-04-22 17:11 | -23.17502 | -46.94658 | 2450 ft | 66 kts | 157° |
| 2026-04-22 17:11 | -23.17853 | -46.94500 | 2452 ft | 45 kts | 156° |
| 2026-04-22 17:11 | -23.18261 | -46.94307 | 2488 ft | 79 kts | 156° |
| 2026-04-22 17:12 | -23.18793 | -46.94047 | 2633 ft | 84 kts | 160° |
| 2026-04-22 17:12 | -23.19307 | -46.93800 | 2855 ft | 78 kts | 159° |
| 2026-04-22 17:12 | -23.19802 | -46.93544 | 2999 ft | 83 kts | 148° |
| 2026-04-22 17:12 | -23.20118 | -46.93030 | 3166 ft | 83 kts | 95° |
| 2026-04-22 17:13 | -23.20007 | -46.92405 | 3294 ft | 87 kts | 69° |
| 2026-04-22 17:13 | -23.19731 | -46.91851 | 3471 ft | 83 kts | 34° |
| 2026-04-22 17:13 | -23.19204 | -46.91696 | 3643 ft | 77 kts | 346° |
| 2026-04-22 17:13 | -23.18691 | -46.91866 | 3756 ft | 81 kts | 336° |
| 2026-04-22 17:14 | -23.18169 | -46.92106 | 3767 ft | 82 kts | 333° |
| 2026-04-22 17:14 | -23.17658 | -46.92385 | 3786 ft | 81 kts | 332° |
| 2026-04-22 17:14 | -23.17162 | -46.92675 | 3782 ft | 83 kts | 334° |
| 2026-04-22 17:14 | -23.16634 | -46.92936 | 3767 ft | 83 kts | 335° |
| 2026-04-22 17:15 | -23.16289 | -46.93089 | 3741 ft | 77 kts | 336° |
| 2026-04-22 17:15 | -23.15609 | -46.93350 | 3604 ft | 78 kts | 336° |
| 2026-04-22 17:15 | -23.15113 | -46.93584 | 3497 ft | 76 kts | 325° |
| 2026-04-22 17:15 | -23.14819 | -46.94042 | 3368 ft | 76 kts | 280° |
| 2026-04-22 17:16 | -23.14891 | -46.94595 | 3286 ft | 73 kts | 255° |
| 2026-04-22 17:16 | -23.15115 | -46.95070 | 3189 ft | 71 kts | 225° |
| 2026-04-22 17:16 | -23.15601 | -46.95248 | 3027 ft | 78 kts | 189° |
| 2026-04-22 17:16 | -23.16141 | -46.95234 | 2919 ft | 72 kts | 173° |
| 2026-04-22 17:17 | -23.16617 | -46.95044 | 2750 ft | 72 kts | 163° |
| 2026-04-22 17:17 | -23.17092 | -46.94837 | 2569 ft | 71 kts | 163° |
| 2026-04-22 17:17 | -23.17560 | -46.94630 | 2443 ft | 62 kts | 161° |
| 2026-04-22 17:17 | -23.17876 | -46.94492 | 2453 ft | 36 kts | 158° |
| 2026-04-22 17:18 | -23.18063 | -46.94401 | 2467 ft | 20 kts | 156° |
| 2026-04-22 17:18 | -23.18177 | -46.94348 | 2474 ft | 15 kts | 156° |
| 2026-04-22 17:18 | -23.18273 | -46.94304 | 2479 ft | 15 kts | 158° |
| 2026-04-22 17:18 | -23.18357 | -46.94290 | 2484 ft | 6 kts | 241° |
| 2026-04-22 17:19 | -23.18361 | -46.94300 | 2485 ft | 0 kts | 248° |
| 2026-04-22 17:19 | -23.18390 | -46.94356 | 2488 ft | 5 kts | 174° |
| 2026-04-22 17:20 | -23.18396 | -46.94354 | 2489 ft | 0 kts | 159° |